Nearby METAR Reports

 

KCRE - North Myrtle Bea, South Carolina, USA
Distance from station: SW 7mi, 11km
Updated: Fri, 14-Dec-2018 1:53am EST
Partly cloudy
Partly cloudy
 Wind from ENE
Wind: ENE 9 mph , 15 km/h
Temperature: 57°F , 14°C
Dew Point: 48°F , 9°C
Humidity: 72%
Barometer: 30.22 inHg , 1023.4 hPa
Clouds: Partly cloudy
Visibility: 10 miles , 16 km
Cloud details: Partly cloudy 11000 ft
2018/12/14 06:53 KCRE 140653Z AUTO 07008KT 10SM SCT110 14/09 A3022 RMK AO1 SLP233 T01390094
KMYR - Myrtle Beach, South Carolina, USA
Distance from station: SW 22mi, 36km
Updated: Fri, 14-Dec-2018 1:56am EST
Overcast
Overcast
 Wind from E
Wind: E 16 mph , 26 km/h, Gust: 24 mph , 39 km/h
Temperature: 57°F , 14°C
Dew Point: 52°F , 11°C
Humidity: 82%
Barometer: 30.22 inHg , 1023.4 hPa
Clouds: Overcast
Visibility: 10 miles , 16 km
Cloud details: Few Clouds 4200 ft
Overcast 10000 ft
2018/12/14 06:56 KMYR 140656Z AUTO 08014G21KT 10SM FEW042 OVC100 14/11 A3022 RMK AO2 SLP233 T01440106
 
KCPC - Whiteville, North Carolina, USA
Distance from station: N 28mi, 45km
Updated: Fri, 14-Dec-2018 2:00am EST
Mostly cloudy
Mostly cloudy
 Wind from ENE
Wind: ENE 6 mph , 9 km/h
Temperature: 52°F , 11°C
Dew Point: 46°F , 8°C
Humidity: 82%
Barometer: 30.24 inHg , 1024 hPa
Clouds: Mostly cloudy
Visibility: 10 miles , 16 km
Cloud details: Mostly cloudy 8500 ft
2018/12/14 07:00 KCPC 140700Z AUTO 06005KT 10SM BKN085 11/08 A3024 RMK AO2 T01110078
KHYW - Conway-Horry Cty, South Carolina, USA
Distance from station: W 28mi, 45km
Updated: Fri, 14-Dec-2018 1:55am EST
Partly cloudy
Partly cloudy
 Wind from ENE
Wind: ENE 7 mph , 11 km/h
Temperature: 54°F , 12°C
Dew Point: 46°F , 8°C
Humidity: 77%
Barometer: 30.22 inHg , 1023.4 hPa
Clouds: Partly cloudy
Visibility: 7 miles , 11 km
Cloud details: Partly cloudy 9000 ft
2018/12/14 06:55 KHYW 140655Z AUTO 06006KT 7SM SCT090 12/08 A3022 RMK AO2
 
KSUT - Southport, North Carolina, USA
Distance from station: E 32mi, 51km
Updated: Fri, 14-Dec-2018 2:00am EST
Clear
Clear
 Wind from E
Wind: E 9 mph , 15 km/h
Temperature: 61°F , 16°C
Dew Point: 52°F , 11°C
Humidity: 72%
Barometer: 30.24 inHg , 1024 hPa
Clouds: Clear
Visibility: 10 miles , 16 km
2018/12/14 07:00 KSUT 140700Z AUTO 09008KT 10SM CLR 16/11 A3024 RMK AO2 T01580110
KMAO - Marion, South Carolina, USA
Distance from station: WNW 45mi, 73km
Updated: Fri, 14-Dec-2018 2:15am EST
Overcast
Overcast
 Wind from ENE
Wind: ENE 8 mph , 13 km/h
Temperature: 52°F , 11°C
Dew Point: 45°F , 7°C
Humidity: 77%
Barometer: 30.23 inHg , 1023.7 hPa
Clouds: Overcast
Visibility: 10 miles , 16 km
Cloud details: Overcast 7500 ft
2018/12/14 07:15 KMAO 140715Z AUTO 06007KT 10SM OVC075 11/07 A3023 RMK AO2
 
KEYF - Elizabethtown, North Carolina, USA
Distance from station: N 49mi, 79km
Updated: Fri, 14-Dec-2018 2:00am EST
Partly cloudy
Partly cloudy
 Wind from NE
Wind: NE 3 mph , 6 km/h
Temperature: 46°F , 8°C
Dew Point: 41°F , 5°C
Humidity: 82%
Barometer: 30.27 inHg , 1025.1 hPa
Clouds: Partly cloudy
Visibility: 10 miles , 16 km
Cloud details: Partly cloudy 8500 ft
2018/12/14 07:00 KEYF 140700Z AUTO 05003KT 10SM SCT085 08/05 A3027 RMK AO2 PWINO T00770049
KILM - Wilmington, North Carolina, USA
Distance from station: ENE 49mi, 79km
Updated: Fri, 14-Dec-2018 1:53am EST
Clear
Clear
 Wind from ENE
Wind: ENE 8 mph , 13 km/h
Temperature: 57°F , 14°C
Dew Point: 46°F , 8°C
Humidity: 67%
Barometer: 30.26 inHg , 1024.7 hPa
Clouds: Clear
Visibility: 10 miles , 16 km
2018/12/14 06:53 KILM 140653Z AUTO 07007KT 10SM CLR 14/08 A3026 RMK AO2 SLP246 T01390078